Terminal Aerodrome Forecast
Issued by NWS St Louis, MO

Home | Current Version | Previous Version | Text Only | Print | Product List | Glossary On
Versions: 1 2 3 4 5 6 7 8 9 10 11 12 13 14 15 16 17 18 19 20 21 22 23 24 25 26 27 28
000
FTUS43 KLSX 250500
TAFCOU
TAF
KCOU 250530Z 2506/2606 28006KT 5SM BR SCT005 BKN010
     FM251600 VRB03KT P6SM BKN250
     FM252100 04008KT P6SM BKN120
     FM260100 02013KT 4SM -TSRA SCT007 OVC012CB=

USA.gov is the U.S. government's official web portal to all federal, state and local government web resources and services.